Wetterdaten: Donnerstag, 19.07.2012
Datum Zeit Temperatur Luftfeuchte Regen Wind Richtung Richtung Taupunkt Windchill Windben
19.07.2012 00:00 13,8 C 81 % 0,0 l/m 0,0 km/h (0 Bft) S 180 10,6 C 13,7 C 0,0 km/h (0 Bft)
19.07.2012 00:05 13,7 C 81 % 0,0 l/m 0,0 km/h (0 Bft) S 180 10,5 C 13,8 C 0,0 km/h (0 Bft)
19.07.2012 00:10 13,9 C 81 % 0,0 l/m 0,0 km/h (0 Bft) W-SW 247 10,7 C 13,7 C 0,0 km/h (0 Bft)
19.07.2012 00:15 14,2 C 80 % 0,0 l/m 0,0 km/h (0 Bft) NO 45 10,8 C 13,9 C 0,0 km/h (0 Bft)
19.07.2012 00:20 14,8 C 79 % 0,0 l/m 0,3 km/h (0 Bft) N-NO 22 11,2 C 14,4 C 0,0 km/h (0 Bft)
19.07.2012 00:25 15,0 C 77 % 0,0 l/m 0,6 km/h (0 Bft) S-SO 157 11,0 C 15,0 C 0,0 km/h (0 Bft)
19.07.2012 00:30 14,8 C 77 % 0,0 l/m 0,3 km/h (0 Bft) O-SO 112 10,8 C 15,3 C 0,0 km/h (0 Bft)
19.07.2012 00:35 14,8 C 76 % 0,0 l/m 0,3 km/h (0 Bft) S-SW 202 10,6 C 15,6 C 0,0 km/h (0 Bft)
19.07.2012 00:40 14,5 C 76 % 0,0 l/m 0,2 km/h (0 Bft) O-SO 112 10,3 C 15,5 C 0,0 km/h (0 Bft)
19.07.2012 00:45 14,3 C 77 % 0,0 l/m 0,0 km/h (0 Bft) S-SW 202 10,3 C 15,2 C 0,0 km/h (0 Bft)
19.07.2012 00:50 13,9 C 78 % 0,0 l/m 0,0 km/h (0 Bft) NW 315 10,1 C 14,6 C 0,0 km/h (0 Bft)
19.07.2012 00:55 14,0 C 77 % 0,0 l/m 0,2 km/h (0 Bft) O-NO 67 10,0 C 14,3 C 0,0 km/h (0 Bft)
19.07.2012 01:00 14,5 C 76 % 0,0 l/m 0,2 km/h (0 Bft) SO 135 10,3 C 14,4 C 0,0 km/h (0 Bft)
19.07.2012 01:05 14,1 C 76 % 0,0 l/m 0,0 km/h (0 Bft) W-NW 292 9,9 C 14,3 C 0,0 km/h (0 Bft)
19.07.2012 01:10 13,8 C 76 % 0,0 l/m 0,0 km/h (0 Bft) N 360 9,6 C 14,2 C 0,0 km/h (0 Bft)
19.07.2012 01:15 13,7 C 76 % 0,0 l/m 0,0 km/h (0 Bft) O-NO 67 9,5 C 14,0 C 0,0 km/h (0 Bft)
19.07.2012 01:20 13,6 C 77 % 0,0 l/m 0,0 km/h (0 Bft) S 180 9,6 C 13,9 C 1,6 km/h (1 Bft)
19.07.2012 01:25 13,6 C 78 % 0,0 l/m 0,2 km/h (0 Bft) SO 135 9,8 C 14,1 C 0,0 km/h (0 Bft)
19.07.2012 01:30 13,9 C 79 % 0,0 l/m 0,6 km/h (0 Bft) S-SO 157 10,3 C 14,1 C 2,9 km/h (1 Bft)
19.07.2012 01:35 14,4 C 77 % 0,0 l/m 1,1 km/h (1 Bft) O-SO 112 10,4 C 14,5 C 4,8 km/h (1 Bft)
19.07.2012 01:40 15,2 C 76 % 0,0 l/m 2,1 km/h (1 Bft) O-SO 112 11,0 C 15,4 C 2,1 km/h (1 Bft)
19.07.2012 01:45 15,1 C 75 % 0,0 l/m 2,4 km/h (1 Bft) N-NO 22 10,7 C 15,6 C 0,0 km/h (0 Bft)
19.07.2012 01:50 14,7 C 76 % 0,0 l/m 1,0 km/h (0 Bft) N 360 10,5 C 15,6 C 1,8 km/h (1 Bft)
19.07.2012 01:55 15,6 C 74 % 0,0 l/m 0,5 km/h (0 Bft) S-SO 157 11,0 C 15,6 C 2,3 km/h (1 Bft)
19.07.2012 02:00 15,2 C 73 % 0,0 l/m 0,6 km/h (0 Bft) N 360 10,4 C 15,5 C 0,0 km/h (0 Bft)
19.07.2012 02:05 15,1 C 73 % 0,0 l/m 0,6 km/h (0 Bft) NO 45 10,3 C 15,3 C 1,9 km/h (1 Bft)
19.07.2012 02:10 15,3 C 72 % 0,0 l/m 0,5 km/h (0 Bft) N 360 10,3 C 15,0 C 0,0 km/h (0 Bft)
19.07.2012 02:15 14,7 C 73 % 0,0 l/m 0,3 km/h (0 Bft) N-NW 337 9,9 C 14,9 C 0,0 km/h (0 Bft)
19.07.2012 02:20 15,0 C 74 % 0,0 l/m 0,3 km/h (0 Bft) N-NO 22 10,4 C 14,6 C 0,0 km/h (0 Bft)
19.07.2012 02:25 14,9 C 73 % 0,0 l/m 0,3 km/h (0 Bft) N-NO 22 10,1 C 14,5 C 2,1 km/h (1 Bft)
19.07.2012 02:30 14,4 C 74 % 0,0 l/m 0,3 km/h (0 Bft) S 180 9,8 C 14,3 C 0,0 km/h (0 Bft)
19.07.2012 02:35 13,9 C 76 % 0,0 l/m 0,6 km/h (0 Bft) O 90 9,7 C 13,9 C 0,0 km/h (0 Bft)
19.07.2012 02:40 13,2 C 76 % 0,0 l/m 0,3 km/h (0 Bft) NW 315 9,1 C 13,4 C 0,0 km/h (0 Bft)
19.07.2012 02:45 13,1 C 77 % 0,0 l/m 0,0 km/h (0 Bft) N 360 9,2 C 13,0 C 0,0 km/h (0 Bft)
19.07.2012 02:50 13,1 C 77 % 0,0 l/m 0,0 km/h (0 Bft) N-NO 22 9,2 C 12,7 C 0,0 km/h (0 Bft)
19.07.2012 02:55 13,0 C 78 % 0,0 l/m 0,0 km/h (0 Bft) W-SW 247 9,3 C 12,5 C 0,0 km/h (0 Bft)
19.07.2012 03:00 12,5 C 78 % 0,0 l/m 0,2 km/h (0 Bft) S 180 8,8 C 12,3 C 0,0 km/h (0 Bft)
19.07.2012 03:05 12,4 C 79 % 0,0 l/m 0,2 km/h (0 Bft) S 180 8,9 C 12,1 C 0,0 km/h (0 Bft)
19.07.2012 03:10 12,7 C 82 % 0,0 l/m 0,3 km/h (0 Bft) N 360 9,7 C 12,0 C 2,7 km/h (1 Bft)
19.07.2012 03:15 13,0 C 81 % 0,0 l/m 0,8 km/h (0 Bft) N-NO 22 9,8 C 12,1 C 0,0 km/h (0 Bft)
19.07.2012 03:20 13,2 C 81 % 0,0 l/m 1,1 km/h (1 Bft) N-NO 22 10,0 C 12,4 C 0,0 km/h (0 Bft)
19.07.2012 03:25 13,3 C 80 % 0,0 l/m 0,6 km/h (0 Bft) N-NO 22 9,9 C 12,5 C 0,0 km/h (0 Bft)
19.07.2012 03:30 12,6 C 80 % 0,0 l/m 0,0 km/h (0 Bft) SO 135 9,2 C 12,3 C 0,0 km/h (0 Bft)
19.07.2012 03:35 12,4 C 81 % 0,0 l/m 0,2 km/h (0 Bft) N-NO 22 9,2 C 11,9 C 2,1 km/h (1 Bft)
19.07.2012 03:40 12,8 C 80 % 0,0 l/m 0,2 km/h (0 Bft) N-NO 22 9,4 C 11,8 C 0,0 km/h (0 Bft)
19.07.2012 03:45 12,4 C 79 % 0,0 l/m 0,2 km/h (0 Bft) S 180 8,9 C 11,7 C 0,0 km/h (0 Bft)
19.07.2012 03:50 11,7 C 80 % 0,0 l/m 0,0 km/h (0 Bft) W-SW 247 8,4 C 11,3 C 0,0 km/h (0 Bft)
19.07.2012 03:55 11,1 C 82 % 0,0 l/m 0,0 km/h (0 Bft) NW 315 8,1 C 11,0 C 0,0 km/h (0 Bft)
19.07.2012 04:00 11,0 C 83 % 0,0 l/m 0,3 km/h (0 Bft) N 360 8,2 C 10,6 C 2,7 km/h (1 Bft)
19.07.2012 04:05 11,0 C 84 % 0,0 l/m 0,6 km/h (0 Bft) NO 45 8,4 C 10,5 C 0,0 km/h (0 Bft)
19.07.2012 04:10 10,9 C 85 % 0,0 l/m 0,6 km/h (0 Bft) N-NO 22 8,5 C 10,5 C 0,0 km/h (0 Bft)
19.07.2012 04:15 10,8 C 85 % 0,0 l/m 0,0 km/h (0 Bft) N-NO 22 8,4 C 10,3 C 0,0 km/h (0 Bft)
19.07.2012 04:20 11,3 C 85 % 0,0 l/m 0,3 km/h (0 Bft) N-NO 22 8,9 C 10,3 C 0,0 km/h (0 Bft)
19.07.2012 04:25 11,3 C 84 % 0,0 l/m 0,3 km/h (0 Bft) N 360 8,7 C 10,4 C 0,0 km/h (0 Bft)
19.07.2012 04:30 11,2 C 84 % 0,0 l/m 0,2 km/h (0 Bft) O-SO 112 8,6 C 10,4 C 1,6 km/h (1 Bft)
19.07.2012 04:35 11,2 C 85 % 0,0 l/m 0,2 km/h (0 Bft) N 360 8,8 C 10,5 C 0,0 km/h (0 Bft)
19.07.2012 04:40 10,8 C 85 % 0,0 l/m 0,2 km/h (0 Bft) W-NW 292 8,4 C 10,4 C 0,0 km/h (0 Bft)
19.07.2012 04:45 10,5 C 85 % 0,0 l/m 0,0 km/h (0 Bft) N-NW 337 8,1 C 10,2 C 0,0 km/h (0 Bft)
19.07.2012 04:50 10,3 C 85 % 0,0 l/m 0,0 km/h (0 Bft) W-SW 247 7,9 C 10,0 C 0,0 km/h (0 Bft)
19.07.2012 04:55 10,3 C 86 % 0,0 l/m 0,0 km/h (0 Bft) W-NW 292 8,1 C 10,0 C 0,0 km/h (0 Bft)
19.07.2012 05:00 10,6 C 87 % 0,0 l/m 0,0 km/h (0 Bft) SO 135 8,5 C 10,0 C 0,0 km/h (0 Bft)
19.07.2012 05:05 10,4 C 87 % 0,0 l/m 0,0 km/h (0 Bft) N 360 8,3 C 10,0 C 0,0 km/h (0 Bft)
19.07.2012 05:10 10,6 C 87 % 0,0 l/m 0,2 km/h (0 Bft) S-SW 202 8,5 C 10,0 C 0,0 km/h (0 Bft)
19.07.2012 05:15 10,6 C 87 % 0,0 l/m 0,2 km/h (0 Bft) N-NO 22 8,5 C 10,1 C 0,0 km/h (0 Bft)
19.07.2012 05:20 10,8 C 86 % 0,0 l/m 0,0 km/h (0 Bft) N 360 8,6 C 10,1 C 0,0 km/h (0 Bft)
19.07.2012 05:25 10,9 C 86 % 0,0 l/m 0,0 km/h (0 Bft) S 180 8,7 C 10,3 C 0,0 km/h (0 Bft)
19.07.2012 05:30 11,3 C 86 % 0,0 l/m 0,5 km/h (0 Bft) N-NO 22 9,0 C 10,5 C 1,6 km/h (1 Bft)
19.07.2012 05:35 11,7 C 85 % 0,0 l/m 0,5 km/h (0 Bft) S 180 9,3 C 10,8 C 0,0 km/h (0 Bft)
19.07.2012 05:40 11,4 C 84 % 0,0 l/m 0,5 km/h (0 Bft) N-NO 22 8,8 C 11,1 C 0,0 km/h (0 Bft)
19.07.2012 05:45 11,3 C 84 % 0,0 l/m 0,8 km/h (0 Bft) NO 45 8,7 C 11,1 C 0,0 km/h (0 Bft)
19.07.2012 05:50 11,0 C 84 % 0,0 l/m 0,5 km/h (0 Bft) N 360 8,4 C 10,9 C 0,0 km/h (0 Bft)
19.07.2012 05:55 11,3 C 84 % 0,0 l/m 0,2 km/h (0 Bft) O 90 8,7 C 10,9 C 0,0 km/h (0 Bft)
19.07.2012 06:00 12,3 C 83 % 0,0 l/m 0,2 km/h (0 Bft) N 360 9,5 C 11,2 C 1,8 km/h (1 Bft)
19.07.2012 06:05 12,2 C 82 % 0,0 l/m 0,3 km/h (0 Bft) N 360 9,2 C 11,5 C 2,3 km/h (1 Bft)
19.07.2012 06:10 11,7 C 82 % 0,0 l/m 0,5 km/h (0 Bft) W-NW 292 8,7 C 11,6 C 0,0 km/h (0 Bft)
19.07.2012 06:15 11,8 C 82 % 0,0 l/m 0,5 km/h (0 Bft) N-NO 22 8,8 C 11,7 C 0,0 km/h (0 Bft)
19.07.2012 06:20 12,3 C 82 % 0,0 l/m 0,2 km/h (0 Bft) S 180 9,3 C 13,1 C 0,0 km/h (0 Bft)
19.07.2012 06:25 13,0 C 81 % 0,0 l/m 0,6 km/h (0 Bft) N-NO 22 9,8 C 14,4 C 3,1 km/h (1 Bft)
19.07.2012 06:30 14,6 C 74 % 0,0 l/m 1,0 km/h (0 Bft) N-NO 22 10,9 C 15,5 C 1,9 km/h (1 Bft)
19.07.2012 06:35 15,5 C 70 % 0,0 l/m 1,3 km/h (1 Bft) O-SO 112 10,5 C 16,0 C 3,5 km/h (1 Bft)
19.07.2012 06:40 16,1 C 68 % 0,0 l/m 1,9 km/h (1 Bft) O 90 10,5 C 17,4 C 9,8 km/h (2 Bft)
19.07.2012 06:45 16,2 C 69 % 0,0 l/m 2,3 km/h (1 Bft) N 360 10,5 C 17,5 C 0,0 km/h (0 Bft)
19.07.2012 06:50 16,3 C 69 % 0,0 l/m 3,4 km/h (1 Bft) O-SO 112 10,7 C 17,4 C 8,9 km/h (2 Bft)
19.07.2012 06:55 17,2 C 67 % 0,0 l/m 5,0 km/h (1 Bft) O-NO 67 11,4 C 17,7 C 12,6 km/h (3 Bft)
19.07.2012 07:00 18,9 C 61 % 0,0 l/m 6,8 km/h (2 Bft) NO 45 12,1 C 19,5 C 16,4 km/h (3 Bft)
19.07.2012 07:05 18,7 C 62 % 0,0 l/m 7,2 km/h (2 Bft) O-SO 112 11,3 C 19,9 C 11,4 km/h (2 Bft)
19.07.2012 07:10 18,7 C 62 % 0,0 l/m 8,7 km/h (2 Bft) O-SO 112 11,3 C 19,0 C 19,2 km/h (3 Bft)
19.07.2012 07:15 18,7 C 62 % 0,0 l/m 9,2 km/h (2 Bft) O-SO 112 11,3 C 18,6 C 12,6 km/h (3 Bft)
19.07.2012 07:20 18,5 C 64 % 0,0 l/m 8,9 km/h (2 Bft) O-SO 112 11,6 C 18,5 C 11,4 km/h (2 Bft)
19.07.2012 07:25 18,4 C 63 % 0,0 l/m 8,0 km/h (2 Bft) S 180 11,2 C 18,7 C 8,5 km/h (2 Bft)
19.07.2012 07:30 20,3 C 59 % 0,0 l/m 8,7 km/h (2 Bft) SO 135 12,3 C 19,1 C 25,7 km/h (4 Bft)
19.07.2012 07:35 21,5 C 55 % 0,0 l/m 7,9 km/h (2 Bft) S-SO 157 12,6 C 20,6 C 9,7 km/h (2 Bft)
19.07.2012 07:40 22,7 C 52 % 0,0 l/m 7,1 km/h (2 Bft) O-SO 112 12,8 C 22,5 C 15,1 km/h (3 Bft)
19.07.2012 07:45 23,5 C 50 % 0,0 l/m 7,2 km/h (2 Bft) S-SO 157 12,6 C 23,0 C 6,3 km/h (2 Bft)
19.07.2012 07:50 24,3 C 50 % 0,0 l/m 7,1 km/h (2 Bft) SO 135 13,2 C 23,7 C 11,3 km/h (2 Bft)
19.07.2012 07:55 24,3 C 49 % 0,0 l/m 6,8 km/h (2 Bft) O-SO 112 12,9 C 24,1 C 6,0 km/h (2 Bft)
19.07.2012 08:00 25,3 C 48 % 0,0 l/m 6,3 km/h (2 Bft) O-SO 112 13,5 C 24,7 C 12,1 km/h (2 Bft)
19.07.2012 08:05 25,4 C 46 % 0,0 l/m 5,6 km/h (1 Bft) SO 135 12,9 C 25,0 C 7,2 km/h (2 Bft)
19.07.2012 08:10 25,7 C 46 % 0,0 l/m 6,6 km/h (2 Bft) SO 135 13,2 C 25,2 C 5,0 km/h (1 Bft)
19.07.2012 08:15 25,2 C 44 % 0,0 l/m 7,6 km/h (2 Bft) S 180 12,1 C 24,8 C 8,7 km/h (2 Bft)
19.07.2012 08:20 26,2 C 44 % 0,0 l/m 7,4 km/h (2 Bft) S 180 13,0 C 25,0 C 6,9 km/h (2 Bft)
19.07.2012 08:25 26,1 C 42 % 0,0 l/m 6,3 km/h (2 Bft) NO 45 12,2 C 25,5 C 6,0 km/h (2 Bft)
19.07.2012 08:30 26,4 C 43 % 0,0 l/m 6,9 km/h (2 Bft) S-SO 157 12,8 C 25,6 C 6,3 km/h (2 Bft)
19.07.2012 08:35 26,4 C 41 % 0,0 l/m 8,0 km/h (2 Bft) S-SW 202 12,1 C 25,4 C 12,6 km/h (3 Bft)
19.07.2012 08:40 25,6 C 40 % 0,0 l/m 8,4 km/h (2 Bft) S-SO 157 11,7 C 25,4 C 11,7 km/h (2 Bft)
19.07.2012 08:45 25,1 C 42 % 0,0 l/m 8,9 km/h (2 Bft) S 180 12,7 C 25,1 C 15,0 km/h (3 Bft)
19.07.2012 08:50 24,9 C 40 % 0,0 l/m 9,7 km/h (2 Bft) SO 135 12,1 C 25,0 C 8,4 km/h (2 Bft)
19.07.2012 08:55 24,7 C 40 % 0,0 l/m 9,2 km/h (2 Bft) SO 135 12,3 C 25,3 C 12,2 km/h (2 Bft)
19.07.2012 09:00 24,9 C 40 % 0,0 l/m 7,7 km/h (2 Bft) O-SO 112 12,5 C 26,1 C 10,1 km/h (2 Bft)
19.07.2012 09:05 24,9 C 40 % 0,0 l/m 7,1 km/h (2 Bft) SO 135 12,5 C 26,3 C 7,1 km/h (2 Bft)
19.07.2012 09:10 24,9 C 41 % 0,0 l/m 7,4 km/h (2 Bft) S 180 13,1 C 26,5 C 10,3 km/h (2 Bft)
19.07.2012 09:15 25,0 C 40 % 0,0 l/m 7,2 km/h (2 Bft) S 180 13,3 C 26,7 C 6,1 km/h (2 Bft)
19.07.2012 09:20 25,3 C 40 % 0,0 l/m 6,9 km/h (2 Bft) O-SO 112 13,3 C 27,0 C 16,6 km/h (3 Bft)
19.07.2012 09:25 25,2 C 41 % 0,0 l/m 7,2 km/h (2 Bft) O 90 13,2 C 26,8 C 16,4 km/h (3 Bft)
19.07.2012 09:30 25,4 C 41 % 0,0 l/m 7,7 km/h (2 Bft) S-SO 157 13,2 C 26,8 C 8,2 km/h (2 Bft)
19.07.2012 09:35 25,4 C 40 % 0,0 l/m 7,1 km/h (2 Bft) O-SO 112 13,0 C 27,1 C 7,9 km/h (2 Bft)
19.07.2012 09:40 25,9 C 40 % 0,0 l/m 5,6 km/h (1 Bft) S-SO 157 13,5 C 27,8 C 6,9 km/h (2 Bft)
19.07.2012 09:45 25,9 C 40 % 0,0 l/m 6,9 km/h (2 Bft) O 90 13,4 C 27,6 C 11,7 km/h (2 Bft)
19.07.2012 09:50 26,3 C 40 % 0,0 l/m 7,1 km/h (2 Bft) SO 135 13,7 C 27,7 C 7,6 km/h (2 Bft)
19.07.2012 09:55 26,7 C 40 % 0,0 l/m 6,1 km/h (2 Bft) S-SO 157 13,7 C 28,3 C 7,9 km/h (2 Bft)
19.07.2012 10:00 27,2 C 38 % 0,0 l/m 4,8 km/h (1 Bft) S-SO 157 13,7 C 29,4 C 6,9 km/h (2 Bft)
19.07.2012 10:05 26,8 C 42 % 0,0 l/m 5,8 km/h (2 Bft) SW 225 13,4 C 28,8 C 8,4 km/h (2 Bft)
19.07.2012 10:10 25,9 C 46 % 0,0 l/m 7,6 km/h (2 Bft) S-SO 157 13,4 C 26,9 C 4,3 km/h (1 Bft)
19.07.2012 10:15 26,1 C 44 % 0,0 l/m 6,8 km/h (2 Bft) N-NO 22 13,1 C 26,2 C 4,0 km/h (1 Bft)
19.07.2012 10:20 26,5 C 44 % 0,0 l/m 6,1 km/h (2 Bft) SO 135 14,3 C 26,8 C 9,2 km/h (2 Bft)
19.07.2012 10:25 26,3 C 44 % 0,0 l/m 6,3 km/h (2 Bft) O-SO 112 13,8 C 26,9 C 5,5 km/h (1 Bft)
19.07.2012 10:30 26,8 C 43 % 0,0 l/m 6,6 km/h (2 Bft) S-SO 157 14,1 C 27,1 C 9,0 km/h (2 Bft)
19.07.2012 10:35 26,9 C 42 % 0,0 l/m 7,2 km/h (2 Bft) SO 135 13,3 C 27,2 C 10,0 km/h (2 Bft)
19.07.2012 10:40 26,8 C 42 % 0,0 l/m 7,4 km/h (2 Bft) O-SO 112 13,5 C 27,4 C 8,9 km/h (2 Bft)
19.07.2012 10:45 27,2 C 44 % 0,0 l/m 7,6 km/h (2 Bft) O-SO 112 13,9 C 27,2 C 17,2 km/h (3 Bft)
19.07.2012 10:50 27,5 C 41 % 0,0 l/m 8,2 km/h (2 Bft) S-SO 157 13,1 C 27,2 C 7,6 km/h (2 Bft)
19.07.2012 10:55 27,4 C 41 % 0,0 l/m 8,2 km/h (2 Bft) S-SO 157 13,0 C 27,4 C 12,9 km/h (3 Bft)
19.07.2012 11:00 27,3 C 42 % 0,0 l/m 8,7 km/h (2 Bft) S 180 13,2 C 27,1 C 10,5 km/h (2 Bft)
19.07.2012 11:05 27,7 C 42 % 0,0 l/m 8,7 km/h (2 Bft) O 90 13,6 C 27,2 C 13,4 km/h (3 Bft)
19.07.2012 11:10 27,3 C 40 % 0,0 l/m 7,9 km/h (2 Bft) SO 135 12,5 C 27,7 C 17,9 km/h (3 Bft)
19.07.2012 11:15 27,1 C 41 % 0,0 l/m 8,2 km/h (2 Bft) SO 135 12,7 C 27,5 C 12,2 km/h (2 Bft)
19.07.2012 11:20 26,9 C 41 % 0,0 l/m 8,9 km/h (2 Bft) NO 45 12,5 C 27,4 C 13,4 km/h (3 Bft)
19.07.2012 11:25 27,0 C 42 % 0,0 l/m 8,9 km/h (2 Bft) O-SO 112 13,0 C 27,2 C 12,6 km/h (3 Bft)
19.07.2012 11:30 27,3 C 43 % 0,0 l/m 9,0 km/h (2 Bft) SO 135 13,6 C 27,3 C 14,2 km/h (3 Bft)
19.07.2012 11:35 27,2 C 41 % 0,0 l/m 9,8 km/h (2 Bft) O-NO 67 12,8 C 27,2 C 9,2 km/h (2 Bft)
19.07.2012 11:40 27,4 C 42 % 0,0 l/m 10,5 km/h (2 Bft) O-SO 112 13,3 C 26,9 C 13,4 km/h (3 Bft)
19.07.2012 11:45 27,2 C 42 % 0,0 l/m 10,5 km/h (2 Bft) SO 135 13,2 C 26,7 C 15,0 km/h (3 Bft)
19.07.2012 11:50 27,0 C 42 % 0,0 l/m 11,3 km/h (2 Bft) O-SO 112 13,0 C 26,4 C 26,2 km/h (4 Bft)
19.07.2012 11:55 26,9 C 41 % 0,0 l/m 12,1 km/h (2 Bft) SO 135 12,5 C 26,2 C 16,1 km/h (3 Bft)
19.07.2012 12:00 26,6 C 44 % 0,0 l/m 11,3 km/h (2 Bft) SO 135 13,3 C 26,2 C 19,2 km/h (3 Bft)
19.07.2012 12:05 26,7 C 43 % 0,0 l/m 10,8 km/h (2 Bft) S-SO 157 13,1 C 25,9 C 15,6 km/h (3 Bft)
19.07.2012 12:10 26,9 C 44 % 0,0 l/m 11,9 km/h (2 Bft) S 180 13,6 C 25,9 C 17,2 km/h (3 Bft)
19.07.2012 12:15 27,2 C 44 % 0,0 l/m 11,1 km/h (2 Bft) SO 135 13,9 C 26,0 C 11,3 km/h (2 Bft)
19.07.2012 12:20 26,6 C 43 % 0,0 l/m 10,9 km/h (2 Bft) S 180 13,0 C 26,1 C 11,4 km/h (2 Bft)
19.07.2012 12:25 25,5 C 47 % 0,0 l/m 11,6 km/h (2 Bft) SO 135 13,3 C 25,0 C 13,5 km/h (3 Bft)
19.07.2012 12:30 25,8 C 48 % 0,0 l/m 11,1 km/h (2 Bft) SO 135 13,9 C 24,9 C 7,6 km/h (2 Bft)
19.07.2012 12:35 26,8 C 46 % 0,0 l/m 10,3 km/h (2 Bft) O-SO 112 14,2 C 25,3 C 16,7 km/h (3 Bft)
19.07.2012 12:40 26,8 C 46 % 0,0 l/m 10,1 km/h (2 Bft) S-SO 157 14,2 C 25,8 C 6,3 km/h (2 Bft)
19.07.2012 12:45 27,0 C 46 % 0,0 l/m 10,5 km/h (2 Bft) S 180 14,4 C 26,1 C 12,2 km/h (2 Bft)
19.07.2012 12:50 26,9 C 45 % 0,0 l/m 10,5 km/h (2 Bft) S-SO 157 13,9 C 26,4 C 26,4 km/h (4 Bft)
19.07.2012 12:55 25,3 C 48 % 0,0 l/m 12,2 km/h (2 Bft) SO 135 13,5 C 25,5 C 19,3 km/h (3 Bft)
19.07.2012 13:00 25,4 C 49 % 0,0 l/m 10,9 km/h (2 Bft) S-SO 157 13,9 C 24,9 C 12,6 km/h (3 Bft)
19.07.2012 13:05 25,7 C 48 % 0,0 l/m 10,8 km/h (2 Bft) S 180 13,9 C 24,9 C 12,7 km/h (3 Bft)
19.07.2012 13:10 25,7 C 48 % 0,0 l/m 10,9 km/h (2 Bft) O 90 13,9 C 25,2 C 13,0 km/h (3 Bft)
19.07.2012 13:15 26,1 C 45 % 0,0 l/m 10,3 km/h (2 Bft) S 180 13,2 C 25,7 C 10,9 km/h (2 Bft)
19.07.2012 13:20 25,4 C 48 % 0,0 l/m 10,6 km/h (2 Bft) SO 135 13,6 C 25,5 C 11,7 km/h (2 Bft)
19.07.2012 13:25 24,7 C 50 % 0,0 l/m 10,3 km/h (2 Bft) S 180 13,6 C 25,1 C 5,3 km/h (1 Bft)
19.07.2012 13:30 25,4 C 49 % 0,0 l/m 8,7 km/h (2 Bft) SO 135 13,9 C 25,7 C 13,5 km/h (3 Bft)
19.07.2012 13:35 24,9 C 49 % 0,0 l/m 9,8 km/h (2 Bft) O-SO 112 13,4 C 25,6 C 16,7 km/h (3 Bft)
19.07.2012 13:40 24,2 C 52 % 0,0 l/m 12,4 km/h (3 Bft) O-SO 112 13,7 C 24,1 C 13,5 km/h (3 Bft)
19.07.2012 13:45 24,0 C 51 % 0,0 l/m 12,1 km/h (2 Bft) O 90 13,2 C 23,7 C 11,3 km/h (2 Bft)
19.07.2012 13:50 23,8 C 54 % 0,0 l/m 11,1 km/h (2 Bft) S-SO 157 13,9 C 23,3 C 12,4 km/h (3 Bft)
19.07.2012 13:55 23,9 C 53 % 0,0 l/m 10,8 km/h (2 Bft) SO 135 13,7 C 23,3 C 18,0 km/h (3 Bft)
19.07.2012 14:00 23,7 C 53 % 0,0 l/m 10,0 km/h (2 Bft) N-NW 337 13,5 C 23,4 C 26,9 km/h (4 Bft)
19.07.2012 14:05 23,5 C 53 % 0,0 l/m 10,8 km/h (2 Bft) SO 135 13,4 C 23,1 C 14,6 km/h (3 Bft)
19.07.2012 14:10 23,8 C 54 % 0,0 l/m 9,3 km/h (2 Bft) S-SO 157 13,9 C 23,5 C 13,4 km/h (3 Bft)
19.07.2012 14:15 23,3 C 54 % 0,0 l/m 9,0 km/h (2 Bft) N-NO 22 13,5 C 23,5 C 12,4 km/h (3 Bft)
19.07.2012 14:20 23,1 C 54 % 0,0 l/m 8,9 km/h (2 Bft) S-SO 157 13,3 C 23,3 C 4,2 km/h (1 Bft)
19.07.2012 14:25 22,7 C 56 % 0,0 l/m 8,9 km/h (2 Bft) O-SO 112 13,5 C 23,0 C 15,9 km/h (3 Bft)
19.07.2012 14:30 21,4 C 58 % 0,0 l/m 9,5 km/h (2 Bft) SO 135 12,8 C 21,5 C 15,0 km/h (3 Bft)
19.07.2012 14:35 20,9 C 63 % 0,0 l/m 9,3 km/h (2 Bft) O-SO 112 13,6 C 20,2 C 6,6 km/h (2 Bft)
19.07.2012 14:40 21,3 C 63 % 0,0 l/m 9,0 km/h (2 Bft) S 180 14,0 C 20,1 C 7,4 km/h (2 Bft)
19.07.2012 14:45 23,0 C 58 % 0,0 l/m 7,1 km/h (2 Bft) W-SW 247 14,3 C 21,8 C 6,3 km/h (2 Bft)
19.07.2012 14:50 22,1 C 59 % 0,0 l/m 6,1 km/h (2 Bft) SO 135 13,7 C 23,1 C 14,3 km/h (3 Bft)
19.07.2012 14:55 21,2 C 61 % 0,0 l/m 7,9 km/h (2 Bft) S 180 13,4 C 21,8 C 16,1 km/h (3 Bft)
19.07.2012 15:00 20,4 C 63 % 0,0 l/m 9,7 km/h (2 Bft) S 180 13,1 C 20,1 C 17,2 km/h (3 Bft)
19.07.2012 15:05 22,1 C 61 % 0,0 l/m 9,2 km/h (2 Bft) SO 135 14,2 C 19,8 C 9,5 km/h (2 Bft)
19.07.2012 15:10 24,2 C 52 % 0,0 l/m 8,4 km/h (2 Bft) O 90 13,7 C 22,9 C 14,3 km/h (3 Bft)
19.07.2012 15:15 24,2 C 56 % 0,0 l/m 8,2 km/h (2 Bft) S-SW 202 14,9 C 24,0 C 8,7 km/h (2 Bft)
19.07.2012 15:20 24,4 C 51 % 0,0 l/m 8,5 km/h (2 Bft) S-SO 157 13,6 C 24,7 C 17,1 km/h (3 Bft)
19.07.2012 15:25 24,8 C 52 % 0,0 l/m 9,0 km/h (2 Bft) O-SO 112 14,3 C 24,6 C 14,2 km/h (3 Bft)
19.07.2012 15:30 26,1 C 49 % 0,0 l/m 9,7 km/h (2 Bft) S-SO 157 14,5 C 25,7 C 10,5 km/h (2 Bft)
19.07.2012 15:35 25,0 C 49 % 0,0 l/m 9,7 km/h (2 Bft) O-SO 112 13,5 C 25,7 C 8,5 km/h (2 Bft)
19.07.2012 15:40 26,1 C 48 % 0,0 l/m 10,0 km/h (2 Bft) S 180 14,2 C 25,8 C 11,1 km/h (2 Bft)
19.07.2012 15:45 25,9 C 49 % 0,0 l/m 8,9 km/h (2 Bft) O 90 14,4 C 26,3 C 13,2 km/h (3 Bft)
19.07.2012 15:50 25,8 C 49 % 0,0 l/m 8,9 km/h (2 Bft) SO 135 14,3 C 26,4 C 14,6 km/h (3 Bft)
19.07.2012 15:55 25,7 C 48 % 0,0 l/m 8,7 km/h (2 Bft) SO 135 13,9 C 26,7 C 8,0 km/h (2 Bft)
19.07.2012 16:00 24,7 C 48 % 0,0 l/m 10,5 km/h (2 Bft) SO 135 12,9 C 25,9 C 18,5 km/h (3 Bft)
19.07.2012 16:05 23,1 C 51 % 0,0 l/m 12,7 km/h (3 Bft) S-SO 157 12,4 C 22,2 C 12,1 km/h (2 Bft)
19.07.2012 16:10 23,3 C 51 % 0,0 l/m 10,0 km/h (2 Bft) S-SO 157 12,6 C 23,1 C 9,5 km/h (2 Bft)
19.07.2012 16:15 24,1 C 50 % 0,0 l/m 8,7 km/h (2 Bft) SO 135 13,0 C 24,1 C 14,0 km/h (3 Bft)
19.07.2012 16:20 22,5 C 54 % 0,0 l/m 9,5 km/h (2 Bft) SO 135 12,7 C 23,5 C 14,0 km/h (3 Bft)
19.07.2012 16:25 21,6 C 57 % 0,0 l/m 8,4 km/h (2 Bft) O-SO 112 12,7 C 22,4 C 11,6 km/h (2 Bft)
19.07.2012 16:30 20,9 C 59 % 0,0 l/m 7,7 km/h (2 Bft) O-SO 112 12,6 C 21,6 C 10,3 km/h (2 Bft)
19.07.2012 16:35 20,3 C 62 % 0,0 l/m 9,8 km/h (2 Bft) O-SO 112 12,8 C 19,4 C 13,4 km/h (3 Bft)
19.07.2012 16:40 20,0 C 60 % 0,0 l/m 9,8 km/h (2 Bft) SO 135 12,0 C 18,7 C 20,1 km/h (4 Bft)
19.07.2012 16:45 18,8 C 67 % 0,0 l/m 10,6 km/h (2 Bft) S 180 12,5 C 16,9 C 10,1 km/h (2 Bft)
19.07.2012 16:50 17,8 C 72 % 0,0 l/m 11,4 km/h (2 Bft) S-SW 202 12,7 C 15,0 C 27,7 km/h (4 Bft)
19.07.2012 16:55 15,7 C 82 % 6,9 l/m 11,6 km/h (2 Bft) S-SO 157 12,6 C 12,7 C 9,7 km/h (2 Bft)
19.07.2012 17:00 15,6 C 85 % 0,7 l/m 10,6 km/h (2 Bft) S-SO 157 13,1 C 12,6 C 27,7 km/h (4 Bft)
19.07.2012 17:05 15,6 C 86 % 0,0 l/m 6,6 km/h (2 Bft) O-SO 112 13,3 C 15,0 C 2,4 km/h (1 Bft)
19.07.2012 17:10 15,6 C 86 % 0,0 l/m 6,6 km/h (2 Bft) O-SO 112 13,3 C 15,0 C 2,4 km/h (1 Bft)
19.07.2012 17:15 15,9 C 87 % 0,0 l/m 4,5 km/h (1 Bft) N-NO 22 13,7 C 15,5 C 2,6 km/h (1 Bft)
19.07.2012 17:20 16,2 C 87 % 0,0 l/m 4,7 km/h (1 Bft) NW 315 14,0 C 15,8 C 5,3 km/h (1 Bft)
19.07.2012 17:25 16,8 C 88 % 0,7 l/m 4,5 km/h (1 Bft) O 90 14,8 C 17,1 C 4,2 km/h (1 Bft)
19.07.2012 17:30 16,3 C 88 % 0,0 l/m 4,8 km/h (1 Bft) SO 135 14,3 C 17,1 C 5,3 km/h (1 Bft)
19.07.2012 17:35 16,3 C 88 % 0,0 l/m 5,0 km/h (1 Bft) W 270 14,3 C 16,8 C 2,7 km/h (1 Bft)
19.07.2012 17:40 16,3 C 89 % 0,0 l/m 4,0 km/h (1 Bft) SO 135 14,5 C 16,8 C 4,2 km/h (1 Bft)
19.07.2012 17:45 16,1 C 89 % 0,0 l/m 3,2 km/h (1 Bft) O-NO 67 14,3 C 16,8 C 2,7 km/h (1 Bft)
19.07.2012 17:50 16,0 C 89 % 0,0 l/m 3,5 km/h (1 Bft) O 90 14,2 C 16,8 C 6,8 km/h (2 Bft)
19.07.2012 17:55 16,1 C 89 % 0,0 l/m 4,0 km/h (1 Bft) O-SO 112 14,3 C 16,8 C 7,1 km/h (2 Bft)
19.07.2012 18:00 16,6 C 89 % 0,0 l/m 4,2 km/h (1 Bft) O-SO 112 14,8 C 17,1 C 5,1 km/h (1 Bft)
19.07.2012 18:05 16,4 C 89 % 0,0 l/m 3,7 km/h (1 Bft) NO 45 14,6 C 17,4 C 6,4 km/h (2 Bft)
19.07.2012 18:10 16,4 C 89 % 0,0 l/m 3,7 km/h (1 Bft) NO 45 14,6 C 17,4 C 6,4 km/h (2 Bft)
19.07.2012 18:15 16,3 C 89 % 0,0 l/m 3,1 km/h (1 Bft) O 90 14,5 C 17,4 C 6,6 km/h (2 Bft)
19.07.2012 18:20 16,1 C 89 % 0,0 l/m 2,6 km/h (1 Bft) O-SO 112 14,3 C 17,2 C 5,3 km/h (1 Bft)
19.07.2012 18:25 16,1 C 89 % 0,0 l/m 2,7 km/h (1 Bft) S-SW 202 14,3 C 17,1 C 0,0 km/h (0 Bft)
19.07.2012 18:30 16,1 C 89 % 0,0 l/m 2,7 km/h (1 Bft) N-NO 22 14,3 C 17,1 C 2,4 km/h (1 Bft)
19.07.2012 18:35 16,4 C 90 % 0,0 l/m 2,7 km/h (1 Bft) O-SO 112 14,8 C 17,2 C 7,4 km/h (2 Bft)
19.07.2012 18:40 16,6 C 90 % 0,0 l/m 3,2 km/h (1 Bft) SO 135 15,0 C 17,4 C 6,0 km/h (2 Bft)
19.07.2012 18:45 16,6 C 90 % 0,0 l/m 3,2 km/h (1 Bft) SO 135 15,0 C 17,4 C 6,0 km/h (2 Bft)
19.07.2012 18:50 16,5 C 89 % 0,0 l/m 3,9 km/h (1 Bft) O-SO 112 14,7 C 17,6 C 4,7 km/h (1 Bft)
19.07.2012 18:55 16,4 C 89 % 0,0 l/m 3,7 km/h (1 Bft) NO 45 14,6 C 17,5 C 0,0 km/h (0 Bft)
19.07.2012 19:00 16,2 C 90 % 0,0 l/m 1,8 km/h (1 Bft) O-SO 112 14,6 C 17,3 C 2,9 km/h (1 Bft)
19.07.2012 19:05 16,2 C 89 % 0,0 l/m 1,6 km/h (1 Bft) SO 135 14,4 C 17,2 C 2,4 km/h (1 Bft)
19.07.2012 19:10 16,3 C 89 % 0,0 l/m 3,1 km/h (1 Bft) N-NW 337 14,5 C 17,3 C 1,6 km/h (1 Bft)
19.07.2012 19:15 16,0 C 89 % 0,0 l/m 4,0 km/h (1 Bft) O-SO 112 14,2 C 17,2 C 2,1 km/h (1 Bft)
19.07.2012 19:20 16,0 C 89 % 0,0 l/m 4,0 km/h (1 Bft) O-SO 112 14,2 C 17,2 C 2,1 km/h (1 Bft)
19.07.2012 19:25 15,9 C 89 % 0,0 l/m 3,2 km/h (1 Bft) N-NO 22 14,1 C 17,0 C 3,5 km/h (1 Bft)
19.07.2012 19:30 15,9 C 89 % 0,0 l/m 3,2 km/h (1 Bft) N-NO 22 14,1 C 17,0 C 3,5 km/h (1 Bft)
19.07.2012 19:35 15,6 C 89 % 0,0 l/m 3,5 km/h (1 Bft) O-SO 112 13,8 C 16,8 C 2,7 km/h (1 Bft)
19.07.2012 19:40 15,5 C 89 % 0,0 l/m 3,1 km/h (1 Bft) O-NO 67 13,7 C 16,7 C 5,3 km/h (1 Bft)
19.07.2012 19:45 15,5 C 89 % 0,0 l/m 3,1 km/h (1 Bft) O-NO 67 13,7 C 16,7 C 5,3 km/h (1 Bft)
19.07.2012 19:50 15,4 C 89 % 0,0 l/m 2,1 km/h (1 Bft) O 90 13,6 C 16,6 C 3,9 km/h (1 Bft)
19.07.2012 19:55 15,2 C 90 % 0,0 l/m 2,6 km/h (1 Bft) O 90 13,6 C 16,3 C 8,0 km/h (2 Bft)
19.07.2012 20:00 15,3 C 89 % 0,0 l/m 2,7 km/h (1 Bft) S 180 13,5 C 16,3 C 2,1 km/h (1 Bft)
19.07.2012 20:05 15,2 C 90 % 0,0 l/m 2,4 km/h (1 Bft) SO 135 13,6 C 16,4 C 3,2 km/h (1 Bft)
19.07.2012 20:10 15,2 C 90 % 0,0 l/m 2,4 km/h (1 Bft) SO 135 13,6 C 16,4 C 3,2 km/h (1 Bft)
19.07.2012 20:15 15,1 C 90 % 0,0 l/m 2,7 km/h (1 Bft) O-NO 67 13,5 C 16,3 C 0,0 km/h (0 Bft)
19.07.2012 20:20 15,1 C 90 % 0,0 l/m 1,9 km/h (1 Bft) O-SO 112 13,5 C 16,2 C 5,3 km/h (1 Bft)
19.07.2012 20:25 15,1 C 89 % 0,0 l/m 2,3 km/h (1 Bft) SO 135 13,3 C 16,2 C 2,3 km/h (1 Bft)
19.07.2012 20:30 15,1 C 89 % 0,0 l/m 2,3 km/h (1 Bft) SO 135 13,3 C 16,2 C 2,3 km/h (1 Bft)
19.07.2012 20:35 15,0 C 89 % 0,0 l/m 4,0 km/h (1 Bft) O-SO 112 13,2 C 16,2 C 6,0 km/h (2 Bft)
19.07.2012 20:40 15,0 C 89 % 0,0 l/m 4,8 km/h (1 Bft) O 90 13,2 C 16,2 C 10,0 km/h (2 Bft)
19.07.2012 20:45 15,0 C 89 % 0,0 l/m 4,8 km/h (1 Bft) O 90 13,2 C 16,2 C 10,0 km/h (2 Bft)
19.07.2012 20:50 15,2 C 87 % 0,0 l/m 7,4 km/h (2 Bft) O-SO 112 13,0 C 15,9 C 16,1 km/h (3 Bft)
19.07.2012 20:55 15,2 C 87 % 0,0 l/m 7,4 km/h (2 Bft) O-SO 112 13,0 C 15,9 C 16,1 km/h (3 Bft)
19.07.2012 21:00 15,2 C 86 % 0,0 l/m 6,9 km/h (2 Bft) SO 135 12,9 C 16,1 C 6,9 km/h (2 Bft)
19.07.2012 21:05 15,2 C 85 % 0,0 l/m 6,9 km/h (2 Bft) SO 135 12,7 C 16,1 C 7,1 km/h (2 Bft)
19.07.2012 21:10 15,1 C 85 % 0,0 l/m 6,4 km/h (2 Bft) O-SO 112 12,6 C 16,4 C 8,2 km/h (2 Bft)
19.07.2012 21:15 15,1 C 85 % 0,0 l/m 6,4 km/h (2 Bft) O-SO 112 12,6 C 16,4 C 8,2 km/h (2 Bft)
19.07.2012 21:20 15,3 C 85 % 0,0 l/m 6,6 km/h (2 Bft) S 180 12,8 C 16,3 C 12,4 km/h (3 Bft)
19.07.2012 21:25 15,3 C 85 % 0,0 l/m 6,8 km/h (2 Bft) SO 135 12,8 C 16,2 C 12,4 km/h (3 Bft)
19.07.2012 21:30 15,3 C 85 % 0,0 l/m 6,3 km/h (2 Bft) O-SO 112 12,8 C 16,3 C 6,9 km/h (2 Bft)
19.07.2012 21:35 15,4 C 84 % 0,0 l/m 6,1 km/h (2 Bft) O-SO 112 12,7 C 16,2 C 9,7 km/h (2 Bft)
19.07.2012 21:40 15,3 C 85 % 0,0 l/m 4,8 km/h (1 Bft) S 180 12,8 C 16,2 C 5,3 km/h (1 Bft)
19.07.2012 21:45 15,4 C 86 % 0,0 l/m 4,8 km/h (1 Bft) O-SO 112 13,1 C 16,1 C 4,2 km/h (1 Bft)
19.07.2012 21:50 15,5 C 85 % 0,0 l/m 5,5 km/h (1 Bft) O-SO 112 13,0 C 16,1 C 10,0 km/h (2 Bft)
19.07.2012 21:55 15,6 C 84 % 0,0 l/m 6,0 km/h (2 Bft) O-SO 112 12,9 C 16,2 C 5,0 km/h (1 Bft)
19.07.2012 22:00 15,5 C 85 % 0,0 l/m 5,5 km/h (1 Bft) SO 135 13,0 C 16,2 C 8,7 km/h (2 Bft)
19.07.2012 22:05 15,5 C 84 % 0,0 l/m 5,8 km/h (2 Bft) O-SO 112 12,8 C 16,1 C 6,4 km/h (2 Bft)
19.07.2012 22:10 15,5 C 83 % 0,0 l/m 6,6 km/h (2 Bft) O-SO 112 12,6 C 16,1 C 12,1 km/h (2 Bft)
19.07.2012 22:15 15,4 C 84 % 0,0 l/m 5,6 km/h (1 Bft) N 360 12,7 C 16,1 C 11,4 km/h (2 Bft)
19.07.2012 22:20 15,4 C 84 % 0,0 l/m 5,3 km/h (1 Bft) S-SO 157 12,7 C 16,0 C 5,1 km/h (1 Bft)
19.07.2012 22:25 15,2 C 85 % 0,0 l/m 4,5 km/h (1 Bft) SO 135 12,7 C 15,9 C 4,7 km/h (1 Bft)
19.07.2012 22:30 15,2 C 84 % 0,0 l/m 4,5 km/h (1 Bft) O-SO 112 12,5 C 15,9 C 4,8 km/h (1 Bft)
19.07.2012 22:35 15,2 C 86 % 0,0 l/m 3,1 km/h (1 Bft) SO 135 12,9 C 15,8 C 2,4 km/h (1 Bft)
19.07.2012 22:40 15,2 C 85 % 0,0 l/m 2,7 km/h (1 Bft) N-NO 22 12,7 C 15,8 C 3,5 km/h (1 Bft)
19.07.2012 22:45 15,2 C 86 % 0,0 l/m 2,3 km/h (1 Bft) N 360 12,9 C 15,8 C 0,0 km/h (0 Bft)
19.07.2012 22:50 15,0 C 87 % 0,0 l/m 1,4 km/h (1 Bft) O 90 12,9 C 15,6 C 1,6 km/h (1 Bft)
19.07.2012 22:55 15,1 C 87 % 0,0 l/m 0,3 km/h (0 Bft) O-SO 112 13,0 C 15,5 C 0,0 km/h (0 Bft)
19.07.2012 23:00 15,0 C 88 % 0,0 l/m 0,0 km/h (0 Bft) O-NO 67 13,0 C 15,4 C 0,0 km/h (0 Bft)
19.07.2012 23:05 15,0 C 88 % 0,0 l/m 0,0 km/h (0 Bft) N 360 13,0 C 15,4 C 0,0 km/h (0 Bft)
19.07.2012 23:10 15,1 C 87 % 0,0 l/m 0,0 km/h (0 Bft) O 90 13,0 C 15,3 C 0,0 km/h (0 Bft)
19.07.2012 23:15 15,0 C 86 % 0,0 l/m 0,2 km/h (0 Bft) N 360 12,7 C 15,2 C 1,6 km/h (1 Bft)
19.07.2012 23:19 15,0 C 86 % 0,0 l/m 0,2 km/h (0 Bft) SO 135 12,7 C 15,1 C 0,0 km/h (0 Bft)
19.07.2012 23:25 15,0 C 87 % 0,0 l/m 0,5 km/h (0 Bft) N 360 12,9 C 15,1 C 1,9 km/h (1 Bft)
19.07.2012 23:30 15,0 C 86 % 0,0 l/m 0,3 km/h (0 Bft) NO 45 12,7 C 15,1 C 0,0 km/h (0 Bft)
19.07.2012 23:35 14,9 C 87 % 0,0 l/m 0,2 km/h (0 Bft) S-SO 157 12,8 C 15,0 C 0,0 km/h (0 Bft)
19.07.2012 23:40 14,9 C 87 % 0,0 l/m 0,0 km/h (0 Bft) W 270 12,8 C 15,0 C 0,0 km/h (0 Bft)
19.07.2012 23:45 14,8 C 87 % 0,0 l/m 0,0 km/h (0 Bft) N 360 12,7 C 14,9 C 0,0 km/h (0 Bft)
19.07.2012 23:50 14,8 C 87 % 0,0 l/m 0,0 km/h (0 Bft) O-NO 67 12,7 C 14,9 C 0,0 km/h (0 Bft)
19.07.2012 23:55 14,6 C 88 % 0,0 l/m 0,2 km/h (0 Bft) N-NO 22 12,6 C 14,7 C 0,0 km/h (0 Bft)
_ Min-Zeit 04:55 10:00 - 23:50 - - 04:50 05:10 23:55
Minimum _ 10,3 C 38 % - 0,0 km/h (0 Bft) - - 7,9 C 10,0 C 0,0 km/h (0 Bft)
_ Max-Zeit 11:05 20:20 16:55 16:05 - - 18:45 10:00 17:00
Maximum _ 27,7 C 90 % 6,9 l/m 12,7 km/h
S-SO (3 Bft)
- - 15,0 C 29,4 C 27,7 km/h
S-SO (4 Bft)
Durchschnitt _ 18,6 C 69 % #8,2 l/m 4,9 km/h (1 Bft) O-SO - 12,2 C 18,7 C 6,8 km/h (2 Bft)